createdAt,value
2016-12-31T00:00:47.328Z,0.7
2016-12-31T00:01:53.351Z,0.7
2016-12-31T00:02:59.379Z,0.7
2016-12-31T00:04:05.391Z,0.7
2016-12-31T00:05:11.414Z,0.7
2016-12-31T00:06:17.434Z,0.7
2016-12-31T00:07:23.454Z,0.6
2016-12-31T00:08:29.472Z,0.6
2016-12-31T00:09:35.495Z,0.6
2016-12-31T00:10:41.512Z,0.6
2016-12-31T00:11:47.527Z,0.6
2016-12-31T00:12:53.540Z,0.7
2016-12-31T00:13:59.562Z,0.8
2016-12-31T00:15:05.585Z,0.8
2016-12-31T00:16:11.602Z,0.9
2016-12-31T00:17:17.616Z,0.9
2016-12-31T00:18:23.640Z,0.8
2016-12-31T00:19:29.660Z,0.8
2016-12-31T00:20:35.671Z,0.8
2016-12-31T00:21:41.704Z,0.7
2016-12-31T00:22:47.729Z,0.6
2016-12-31T00:23:53.753Z,0.6
2016-12-31T00:24:59.770Z,0.5
2016-12-31T00:26:05.796Z,0.6
2016-12-31T00:27:11.806Z,0.6
2016-12-31T00:28:17.823Z,0.6
2016-12-31T00:29:23.846Z,0.6
2016-12-31T00:30:29.868Z,0.6
2016-12-31T00:31:35.877Z,0.6
2016-12-31T00:32:41.907Z,0.6
2016-12-31T00:33:47.932Z,0.5
2016-12-31T00:34:53.955Z,0.6
2016-12-31T00:35:59.967Z,0.7
2016-12-31T00:37:05.996Z,0.6
2016-12-31T00:38:12.015Z,0.5
2016-12-31T00:39:18.029Z,0.6
2016-12-31T00:40:24.045Z,0.6
2016-12-31T00:41:30.072Z,0.4
2016-12-31T00:42:36.093Z,0.4
2016-12-31T00:43:42.114Z,0.4
2016-12-31T00:44:48.138Z,0.4
2016-12-31T00:45:54.163Z,0.4
2016-12-31T00:47:00.178Z,0.5
2016-12-31T00:48:06.202Z,0.5
2016-12-31T00:49:12.221Z,0.5
2016-12-31T00:50:18.250Z,0.4
2016-12-31T00:51:24.269Z,0.5
2016-12-31T00:52:30.291Z,0.5
2016-12-31T00:53:36.310Z,0.5
2016-12-31T00:54:42.331Z,0.4
2016-12-31T00:55:48.349Z,0.5
2016-12-31T00:56:54.369Z,0.5
2016-12-31T00:58:00.388Z,0.5
2016-12-31T00:59:06.413Z,0.4
2016-12-31T01:00:12.432Z,0.3
2016-12-31T01:01:18.447Z,0.4
2016-12-31T01:02:24.476Z,0.5
2016-12-31T01:03:30.500Z,0.4
2016-12-31T01:04:36.515Z,0.5
2016-12-31T01:05:42.532Z,0.6
2016-12-31T01:06:48.549Z,0.4
2016-12-31T01:07:54.572Z,0.4
2016-12-31T01:09:00.597Z,0.4
2016-12-31T01:10:06.612Z,0.5
2016-12-31T01:11:12.632Z,0.4
2016-12-31T01:12:18.658Z,0.4
2016-12-31T01:13:24.683Z,0.5
2016-12-31T01:14:30.702Z,0.4
2016-12-31T01:15:36.722Z,0.5
2016-12-31T01:16:42.739Z,0.5
2016-12-31T01:17:48.765Z,0.4
2016-12-31T01:18:54.784Z,0.5
2016-12-31T01:20:00.811Z,0.5
2016-12-31T01:21:06.843Z,0.6
2016-12-31T01:22:12.855Z,0.6
2016-12-31T01:23:18.878Z,0.6
2016-12-31T01:24:24.895Z,0.6
2016-12-31T01:25:30.921Z,0.5
2016-12-31T01:26:36.928Z,0.6
2016-12-31T01:27:42.951Z,0.5
2016-12-31T01:28:48.976Z,0.5
2016-12-31T01:29:54.999Z,0.6
2016-12-31T01:31:01.022Z,0.5
2016-12-31T01:32:07.046Z,0.5
2016-12-31T01:33:13.066Z,0.5
2016-12-31T01:34:19.090Z,0.5
2016-12-31T01:35:25.114Z,0.5
2016-12-31T01:36:31.131Z,0.5
2016-12-31T01:37:37.152Z,0.4
2016-12-31T01:38:43.177Z,0.5
2016-12-31T01:39:49.205Z,0.5
2016-12-31T01:40:55.221Z,0.4
2016-12-31T01:42:01.248Z,0.5
2016-12-31T01:43:07.266Z,0.5
2016-12-31T01:44:13.284Z,0.5
2016-12-31T01:45:19.295Z,0.5
2016-12-31T01:46:25.319Z,0.5
2016-12-31T01:47:31.342Z,0.5
2016-12-31T01:48:37.356Z,0.4
2016-12-31T01:49:43.383Z,0.4
2016-12-31T01:50:49.408Z,0.4
2016-12-31T01:51:55.424Z,0.4
2016-12-31T01:53:01.445Z,0.4
2016-12-31T01:54:07.464Z,0.4
2016-12-31T01:55:13.491Z,0.5
2016-12-31T01:56:19.507Z,0.5
2016-12-31T01:57:25.526Z,0.4
2016-12-31T01:58:31.549Z,0.4
2016-12-31T01:59:37.562Z,0.4
2016-12-31T02:00:43.595Z,0.4
2016-12-31T02:01:49.620Z,0.5
2016-12-31T02:02:55.646Z,0.4
2016-12-31T02:04:01.655Z,0.5
2016-12-31T02:05:07.681Z,0.5
2016-12-31T02:06:13.702Z,0.4
2016-12-31T02:07:19.722Z,0.4
2016-12-31T02:08:25.735Z,0.4
2016-12-31T02:09:31.763Z,0.4
2016-12-31T02:10:37.778Z,0.5
2016-12-31T02:11:43.804Z,0.4
2016-12-31T02:12:49.826Z,0.4
2016-12-31T02:13:55.843Z,0.5
2016-12-31T02:15:01.862Z,0.4
2016-12-31T02:16:07.882Z,0.4
2016-12-31T02:17:13.909Z,0.4
2016-12-31T02:18:19.931Z,0.5
2016-12-31T02:19:25.283Z,0.5
2016-12-31T02:20:31.304Z,0.5
2016-12-31T02:21:37.328Z,0.5
2016-12-31T02:22:43.353Z,0.6
2016-12-31T02:23:49.372Z,0.6
2016-12-31T02:24:55.391Z,0.6
2016-12-31T02:26:01.410Z,0.5
2016-12-31T02:27:07.434Z,0.6
2016-12-31T02:28:13.454Z,0.6
2016-12-31T02:29:19.472Z,0.6
2016-12-31T02:30:25.496Z,0.6
2016-12-31T02:31:31.527Z,0.6
2016-12-31T02:32:37.545Z,0.6
2016-12-31T02:33:43.569Z,0.6
2016-12-31T02:34:49.585Z,0.5
2016-12-31T02:35:55.614Z,0.4
2016-12-31T02:37:01.638Z,0.4
2016-12-31T02:38:07.662Z,0.5
2016-12-31T02:39:13.680Z,0.6
2016-12-31T02:40:19.693Z,0.6
2016-12-31T02:41:25.708Z,0.6
2016-12-31T02:42:31.725Z,0.6
2016-12-31T02:43:37.746Z,0.6
2016-12-31T02:44:43.763Z,0.5
2016-12-31T02:45:49.785Z,0.6
2016-12-31T02:46:55.800Z,0.5
2016-12-31T02:48:01.821Z,0.6
2016-12-31T02:49:07.845Z,0.7
2016-12-31T02:50:13.870Z,0.5
2016-12-31T02:51:19.885Z,0.5
2016-12-31T02:52:25.909Z,0.5
2016-12-31T02:53:31.934Z,0.4
2016-12-31T02:54:37.952Z,0.4
2016-12-31T02:55:43.973Z,0.5
2016-12-31T02:56:49.994Z,0.6
2016-12-31T02:57:56.020Z,0.5
2016-12-31T02:59:02.042Z,0.4
2016-12-31T03:00:08.060Z,0.4
2016-12-31T03:01:14.080Z,0.4
2016-12-31T03:02:20.099Z,0.4
2016-12-31T03:03:26.116Z,0.4
2016-12-31T03:04:32.139Z,0.4
2016-12-31T03:05:38.159Z,0.4
2016-12-31T03:06:44.175Z,0.5
2016-12-31T03:07:50.191Z,0.4
2016-12-31T03:08:56.207Z,0.4
2016-12-31T03:10:02.234Z,0.4
2016-12-31T03:11:08.258Z,0.4
2016-12-31T03:12:14.278Z,0.5
2016-12-31T03:13:20.289Z,0.5
2016-12-31T03:14:26.309Z,0.5
2016-12-31T03:15:32.331Z,0.4
2016-12-31T03:16:38.341Z,0.4
2016-12-31T03:17:44.374Z,0.4
2016-12-31T03:18:50.398Z,0.4
2016-12-31T03:19:56.423Z,0.4
2016-12-31T03:21:02.438Z,0.4
2016-12-31T03:22:08.469Z,0.4
2016-12-31T03:23:14.486Z,0.4
2016-12-31T03:24:20.510Z,0.4
2016-12-31T03:25:26.524Z,0.4
2016-12-31T03:26:32.546Z,0.5
2016-12-31T03:27:38.562Z,0.5
2016-12-31T03:28:44.579Z,0.5
2016-12-31T03:29:50.592Z,0.5
2016-12-31T03:30:56.626Z,0.3
2016-12-31T03:32:02.647Z,0.4
2016-12-31T03:33:08.656Z,0.4
2016-12-31T03:34:14.672Z,0.4
2016-12-31T03:35:20.695Z,0.4
2016-12-31T03:36:26.715Z,0.5
2016-12-31T03:37:32.735Z,0.4
2016-12-31T03:38:38.757Z,0.3
2016-12-31T03:39:44.781Z,0.4
2016-12-31T03:40:50.799Z,0.4
2016-12-31T03:41:56.811Z,0.4
2016-12-31T03:43:02.833Z,0.4
2016-12-31T03:44:08.859Z,0.4
2016-12-31T03:45:14.875Z,0.4
2016-12-31T03:46:20.897Z,0.4
2016-12-31T03:47:26.936Z,0.4
2016-12-31T03:48:32.945Z,0.5
2016-12-31T03:49:38.960Z,0.5
2016-12-31T03:50:44.983Z,0.4
2016-12-31T03:51:51.002Z,0.5
2016-12-31T03:52:57.019Z,0.4
2016-12-31T03:54:03.038Z,0.5
2016-12-31T03:55:09.062Z,0.4
2016-12-31T03:56:15.089Z,0.5
2016-12-31T03:57:21.109Z,0.3
2016-12-31T03:58:27.125Z,0.2
2016-12-31T03:59:33.155Z,0.3
2016-12-31T04:00:39.173Z,0.3
2016-12-31T04:01:45.196Z,0.4
2016-12-31T04:02:51.209Z,0.4
2016-12-31T04:03:57.235Z,0.5
2016-12-31T04:05:03.257Z,0.3
2016-12-31T04:06:09.282Z,0.4
2016-12-31T04:07:15.301Z,0.4
2016-12-31T04:08:21.330Z,0.3
2016-12-31T04:09:27.346Z,0.4
2016-12-31T04:10:33.362Z,0.3
2016-12-31T04:11:39.377Z,0.4
2016-12-31T04:12:45.408Z,0.4
2016-12-31T04:13:51.424Z,0.5
2016-12-31T04:14:57.434Z,0.4
2016-12-31T04:16:03.462Z,0.4
2016-12-31T04:17:08.818Z,0.3
2016-12-31T04:18:14.834Z,0.4
2016-12-31T04:19:20.851Z,0.4
2016-12-31T04:20:26.870Z,0.2
2016-12-31T04:21:32.896Z,0.3
2016-12-31T04:22:38.912Z,0.2
2016-12-31T04:23:44.937Z,0.1
2016-12-31T04:24:50.964Z,0.3
2016-12-31T04:25:56.982Z,0.4
2016-12-31T04:27:03.013Z,0.5
2016-12-31T04:28:09.036Z,0.4
2016-12-31T04:29:15.050Z,0.5
2016-12-31T04:30:21.070Z,0.5
2016-12-31T04:31:27.094Z,0.5
2016-12-31T04:32:33.104Z,0.4
2016-12-31T04:33:38.459Z,0.5
2016-12-31T04:34:44.483Z,0.6
2016-12-31T04:35:50.508Z,0.6
2016-12-31T04:36:56.521Z,0.7
2016-12-31T04:38:02.545Z,0.5
2016-12-31T04:39:08.570Z,0.6
2016-12-31T04:40:14.581Z,0.5
2016-12-31T04:41:20.592Z,0.5
2016-12-31T04:42:26.615Z,0.4
2016-12-31T04:43:32.634Z,0.5
2016-12-31T04:44:38.654Z,0.5
2016-12-31T04:45:44.683Z,0.4
2016-12-31T04:46:50.703Z,0.4
2016-12-31T04:47:56.727Z,0.5
2016-12-31T04:49:02.745Z,0.5
2016-12-31T04:50:08.765Z,0.5
2016-12-31T04:51:14.787Z,0.4
2016-12-31T04:52:20.807Z,0.5
2016-12-31T04:53:26.824Z,0.4
2016-12-31T04:54:32.839Z,0.5
2016-12-31T04:55:38.862Z,0.6
2016-12-31T04:56:44.883Z,0.5
2016-12-31T04:57:50.896Z,0.6
2016-12-31T04:58:56.915Z,0.7
2016-12-31T05:00:02.939Z,0.6
2016-12-31T05:01:08.964Z,0.6
2016-12-31T05:02:14.979Z,0.7
2016-12-31T05:03:21.005Z,0.5
2016-12-31T05:04:27.027Z,0.5
2016-12-31T05:05:33.049Z,0.6
2016-12-31T05:06:39.064Z,0.5
2016-12-31T05:07:45.084Z,0.6
2016-12-31T05:08:51.099Z,0.7
2016-12-31T05:09:57.109Z,0.7
2016-12-31T05:11:03.132Z,0.6
2016-12-31T05:12:09.155Z,0.5
2016-12-31T05:13:15.178Z,0.5
2016-12-31T05:14:21.193Z,0.4
2016-12-31T05:15:27.217Z,0.4
2016-12-31T05:16:33.237Z,0.4
2016-12-31T05:17:39.262Z,0.5
2016-12-31T05:18:45.285Z,0.6
2016-12-31T05:19:51.303Z,0.4
2016-12-31T05:20:57.321Z,0.5
2016-12-31T05:22:03.339Z,0.5
2016-12-31T05:23:09.363Z,0.5
2016-12-31T05:24:15.379Z,0.4
2016-12-31T05:25:21.398Z,0.4
2016-12-31T05:26:27.424Z,0.4
2016-12-31T05:27:33.452Z,0.4
2016-12-31T05:28:39.468Z,0.4
2016-12-31T05:29:45.482Z,0.5
2016-12-31T05:30:51.498Z,0.4
2016-12-31T05:31:57.529Z,0.5
2016-12-31T05:33:03.549Z,0.6
2016-12-31T05:34:09.569Z,0.5
2016-12-31T05:35:15.582Z,0.5
2016-12-31T05:36:21.604Z,0.4
2016-12-31T05:37:27.620Z,0.5
2016-12-31T05:38:33.638Z,0.5
2016-12-31T05:39:39.651Z,0.4
2016-12-31T05:40:45.678Z,0.4
2016-12-31T05:41:51.697Z,0.5
2016-12-31T05:42:57.710Z,0.4
2016-12-31T05:44:03.740Z,0.4
2016-12-31T05:45:09.762Z,0.5
2016-12-31T05:46:15.777Z,0.5
2016-12-31T05:47:21.797Z,0.5
2016-12-31T05:48:27.829Z,0.5
2016-12-31T05:49:33.841Z,0.5
2016-12-31T05:50:39.851Z,0.6
2016-12-31T05:51:45.869Z,0.6
2016-12-31T05:52:51.896Z,0.7
2016-12-31T05:53:57.912Z,0.7
2016-12-31T05:55:03.934Z,0.7
2016-12-31T05:56:09.950Z,0.7
2016-12-31T05:57:15.964Z,0.5
2016-12-31T05:58:22.042Z,0.4
2016-12-31T05:59:28.041Z,0.4
2016-12-31T06:00:34.095Z,0.4
2016-12-31T06:01:41.950Z,0.5
2016-12-31T06:02:47.967Z,0.5
2016-12-31T06:03:53.996Z,0.5
2016-12-31T06:05:00.014Z,0.5
2016-12-31T06:06:06.037Z,0.7
2016-12-31T06:07:12.056Z,0.7
2016-12-31T06:08:18.070Z,0.7
2016-12-31T06:09:24.083Z,0.7
2016-12-31T06:10:30.105Z,0.8
2016-12-31T06:11:36.139Z,0.7
2016-12-31T06:12:42.136Z,0.6
2016-12-31T06:13:48.163Z,0.5
2016-12-31T06:14:54.181Z,0.6
2016-12-31T06:16:00.203Z,0.7
2016-12-31T06:17:06.214Z,0.7
2016-12-31T06:18:12.244Z,0.7
2016-12-31T06:19:18.265Z,0.8
2016-12-31T06:20:24.290Z,0.7
2016-12-31T06:21:30.316Z,0.6
2016-12-31T06:22:36.454Z,0.7
2016-12-31T06:23:42.474Z,0.8
2016-12-31T06:24:48.561Z,0.8
2016-12-31T06:25:54.573Z,0.7
2016-12-31T06:27:00.670Z,0.7
2016-12-31T06:28:06.694Z,0.7
2016-12-31T06:29:12.771Z,0.8
2016-12-31T06:30:18.794Z,0.8
2016-12-31T06:31:24.817Z,0.7
2016-12-31T06:32:30.840Z,0.6
2016-12-31T06:33:36.865Z,0.7
2016-12-31T06:34:42.881Z,0.8
2016-12-31T06:35:48.904Z,0.8
2016-12-31T06:36:54.922Z,0.9
2016-12-31T06:38:00.940Z,0.8
2016-12-31T06:39:06.959Z,0.9
2016-12-31T06:40:12.986Z,0.9
2016-12-31T06:41:19.005Z,0.9
2016-12-31T06:42:25.031Z,0.9
2016-12-31T06:43:31.051Z,0.8
2016-12-31T06:44:37.074Z,0.8
2016-12-31T06:45:43.092Z,0.8
2016-12-31T06:46:49.118Z,0.8
2016-12-31T06:47:55.128Z,0.8
2016-12-31T06:49:01.154Z,0.7
2016-12-31T06:50:07.168Z,0.8
2016-12-31T06:51:13.193Z,0.7
2016-12-31T06:52:19.219Z,0.8
2016-12-31T06:53:25.245Z,0.6
2016-12-31T06:54:31.271Z,0.8
2016-12-31T06:55:37.293Z,0.8
2016-12-31T06:56:43.317Z,0.7
2016-12-31T06:57:49.333Z,0.7
2016-12-31T06:58:55.357Z,0.7
2016-12-31T07:00:01.426Z,0.7
2016-12-31T07:01:07.440Z,0.6
2016-12-31T07:02:13.462Z,0.6
2016-12-31T07:03:19.522Z,0.7
2016-12-31T07:04:25.532Z,0.8
2016-12-31T07:05:31.545Z,0.7
2016-12-31T07:06:37.562Z,0.6
2016-12-31T07:07:43.582Z,0.7
2016-12-31T07:08:49.612Z,0.8
2016-12-31T07:09:55.629Z,0.9
2016-12-31T07:11:01.647Z,0.9
2016-12-31T07:12:07.673Z,0.8
2016-12-31T07:13:13.695Z,0.8
2016-12-31T07:14:19.716Z,0.8
2016-12-31T07:15:25.732Z,0.6
2016-12-31T07:16:31.759Z,0.7
2016-12-31T07:17:37.778Z,0.7
2016-12-31T07:18:43.805Z,0.7
2016-12-31T07:19:49.823Z,0.6
2016-12-31T07:20:55.847Z,0.5
2016-12-31T07:22:01.858Z,0.6
2016-12-31T07:23:07.217Z,0.6
2016-12-31T07:24:13.251Z,0.6
2016-12-31T07:25:19.270Z,0.6
2016-12-31T07:26:25.282Z,0.7
2016-12-31T07:27:31.306Z,0.7
2016-12-31T07:28:37.317Z,0.7
2016-12-31T07:29:43.347Z,0.7
2016-12-31T07:30:49.376Z,0.6
2016-12-31T07:31:55.395Z,0.6
2016-12-31T07:33:01.405Z,0.6
2016-12-31T07:34:07.430Z,0.7
2016-12-31T07:35:13.451Z,0.7
2016-12-31T07:36:19.477Z,0.7
2016-12-31T07:37:25.487Z,0.6
2016-12-31T07:38:31.515Z,0.6
2016-12-31T07:39:37.537Z,0.7
2016-12-31T07:40:43.556Z,0.7
2016-12-31T07:41:49.573Z,0.7
2016-12-31T07:42:55.595Z,0.7
2016-12-31T07:44:01.614Z,0.7
2016-12-31T07:45:07.631Z,0.7
2016-12-31T07:46:13.651Z,0.8
2016-12-31T07:47:19.668Z,0.7
2016-12-31T07:48:25.689Z,0.7
2016-12-31T07:49:31.706Z,0.7
2016-12-31T07:50:37.736Z,0.7
2016-12-31T07:51:43.759Z,0.8
2016-12-31T07:52:49.802Z,0.7
2016-12-31T07:53:55.845Z,0.7
2016-12-31T07:55:02.100Z,0.7
2016-12-31T07:56:08.116Z,0.7
2016-12-31T07:57:14.139Z,0.7
2016-12-31T07:58:20.157Z,0.8
2016-12-31T07:59:26.208Z,0.7
2016-12-31T08:00:32.251Z,0.7
2016-12-31T08:01:38.506Z,0.6
2016-12-31T08:02:44.525Z,0.7
2016-12-31T08:03:50.548Z,0.7
2016-12-31T08:04:56.574Z,0.8
2016-12-31T08:06:02.598Z,0.8
2016-12-31T08:07:08.616Z,0.7
2016-12-31T08:08:14.635Z,0.7
2016-12-31T08:09:20.648Z,0.7
2016-12-31T08:10:26.671Z,0.7
2016-12-31T08:11:32.692Z,0.8
2016-12-31T08:12:38.705Z,0.8
2016-12-31T08:13:44.719Z,0.8
2016-12-31T08:14:50.744Z,0.8
2016-12-31T08:15:56.761Z,0.9
2016-12-31T08:17:02.781Z,0.9
2016-12-31T08:18:08.799Z,0.8
2016-12-31T08:19:14.823Z,0.8
2016-12-31T08:20:20.844Z,0.9
2016-12-31T08:21:26.858Z,0.8
2016-12-31T08:22:32.885Z,0.8
2016-12-31T08:23:38.920Z,0.9
2016-12-31T08:24:44.937Z,0.9
2016-12-31T08:25:50.954Z,0.8
2016-12-31T08:26:56.969Z,0.9
2016-12-31T08:28:02.991Z,1
2016-12-31T08:29:09.014Z,0.9
2016-12-31T08:30:15.029Z,0.8
2016-12-31T08:31:21.055Z,0.8
2016-12-31T08:32:27.069Z,0.8
2016-12-31T08:33:33.096Z,0.9
2016-12-31T08:34:39.119Z,1
2016-12-31T08:35:45.138Z,1
2016-12-31T08:36:51.160Z,1
2016-12-31T08:37:57.177Z,1
2016-12-31T08:39:03.192Z,0.9
2016-12-31T08:40:09.220Z,0.9
2016-12-31T08:41:15.240Z,0.9
2016-12-31T08:42:21.257Z,1
2016-12-31T08:43:27.280Z,0.9
2016-12-31T08:44:33.311Z,1
2016-12-31T08:45:39.332Z,0.9
2016-12-31T08:46:45.351Z,0.9
2016-12-31T08:47:51.367Z,0.9
2016-12-31T08:48:57.401Z,0.8
2016-12-31T08:50:03.409Z,0.8
2016-12-31T08:51:09.429Z,0.9
2016-12-31T08:52:15.454Z,1
2016-12-31T08:53:21.483Z,1
2016-12-31T08:54:27.492Z,1.1
2016-12-31T08:55:33.518Z,1.1
2016-12-31T08:56:39.536Z,1
2016-12-31T08:57:45.560Z,1
2016-12-31T08:58:51.597Z,1.1
2016-12-31T08:59:57.615Z,1.1
2016-12-31T09:01:03.636Z,1.1
2016-12-31T09:02:09.664Z,1
2016-12-31T09:03:15.686Z,1
2016-12-31T09:04:21.704Z,1
2016-12-31T09:05:27.719Z,0.8
2016-12-31T09:06:33.740Z,0.9
2016-12-31T09:07:39.765Z,1
2016-12-31T09:08:45.778Z,1.1
2016-12-31T09:09:51.804Z,1.1
2016-12-31T09:10:57.831Z,1.1
2016-12-31T09:12:03.854Z,1.1
2016-12-31T09:13:09.874Z,1.1
2016-12-31T09:14:15.900Z,1
2016-12-31T09:15:21.919Z,1.1
2016-12-31T09:16:27.942Z,1.1
2016-12-31T09:17:33.956Z,1.2
2016-12-31T09:18:39.981Z,1
2016-12-31T09:19:45.996Z,1.1
2016-12-31T09:20:52.014Z,1.1
2016-12-31T09:21:58.030Z,1
2016-12-31T09:23:04.060Z,1.1
2016-12-31T09:24:10.071Z,1.2
2016-12-31T09:25:16.091Z,1.2
2016-12-31T09:26:22.119Z,1.3
2016-12-31T09:27:28.134Z,1.2
2016-12-31T09:28:34.162Z,1.3
2016-12-31T09:29:40.186Z,1.2
2016-12-31T09:30:46.206Z,1.2
2016-12-31T09:31:52.231Z,1.1
2016-12-31T09:32:58.246Z,1.2
2016-12-31T09:34:04.267Z,1.2
2016-12-31T09:35:10.279Z,1.2
2016-12-31T09:36:16.301Z,1.3
2016-12-31T09:37:22.318Z,1.4
2016-12-31T09:38:28.337Z,1.3
2016-12-31T09:39:34.372Z,1.2
2016-12-31T09:40:40.398Z,1.2
2016-12-31T09:41:46.417Z,1.1
2016-12-31T09:42:52.444Z,1.3
2016-12-31T09:43:58.456Z,1.2
2016-12-31T09:45:04.480Z,1.3
2016-12-31T09:46:10.496Z,1.4
2016-12-31T09:47:16.521Z,1.4
2016-12-31T09:48:22.535Z,1.3
2016-12-31T09:49:28.560Z,1.2
2016-12-31T09:50:34.602Z,1.3
2016-12-31T09:51:40.603Z,1.3
2016-12-31T09:52:46.624Z,1.4
2016-12-31T09:53:52.640Z,1.4
2016-12-31T09:54:58.653Z,1.4
2016-12-31T09:56:04.667Z,1.3
2016-12-31T09:57:10.688Z,1.3
2016-12-31T09:58:16.711Z,1.3
2016-12-31T09:59:22.732Z,1.3
2016-12-31T10:00:28.750Z,1.4
2016-12-31T10:01:34.780Z,1.4
2016-12-31T10:02:40.793Z,1.5
2016-12-31T10:03:45.718Z,1.5
2016-12-31T10:04:51.731Z,1.5
2016-12-31T10:05:57.762Z,1.4
2016-12-31T10:07:03.775Z,1.3
2016-12-31T10:08:09.800Z,1.4
2016-12-31T10:09:15.825Z,1.3
2016-12-31T10:10:21.850Z,1.3
2016-12-31T10:11:27.861Z,1.4
2016-12-31T10:12:33.880Z,1.3
2016-12-31T10:13:39.909Z,1.3
2016-12-31T10:14:45.931Z,1.4
2016-12-31T10:15:51.949Z,1.5
2016-12-31T10:16:57.962Z,1.5
2016-12-31T10:18:03.986Z,1.5
2016-12-31T10:19:10.007Z,1.6
2016-12-31T10:20:16.028Z,1.4
2016-12-31T10:21:22.055Z,1.4
2016-12-31T10:22:28.064Z,1.5
2016-12-31T10:23:34.092Z,1.5
2016-12-31T10:24:40.106Z,1.5
2016-12-31T10:25:46.130Z,1.5
2016-12-31T10:26:52.161Z,1.6
2016-12-31T10:27:58.177Z,1.5
2016-12-31T10:29:04.198Z,1.4
2016-12-31T10:30:10.221Z,1.4
2016-12-31T10:31:16.250Z,1.5
2016-12-31T10:32:22.257Z,1.5
2016-12-31T10:33:28.275Z,1.6
2016-12-31T10:34:34.299Z,1.5
2016-12-31T10:35:40.329Z,1.6
2016-12-31T10:36:46.361Z,1.7
2016-12-31T10:37:52.379Z,1.7
2016-12-31T10:38:58.410Z,1.6
2016-12-31T10:40:04.427Z,1.6
2016-12-31T10:41:10.444Z,1.7
2016-12-31T10:42:16.461Z,1.8
2016-12-31T10:43:22.488Z,1.7
2016-12-31T10:44:28.517Z,1.7
2016-12-31T10:45:34.537Z,1.7
2016-12-31T10:46:40.581Z,1.7
2016-12-31T10:47:46.591Z,1.8
2016-12-31T10:48:52.600Z,2
2016-12-31T10:49:58.620Z,1.8
2016-12-31T10:51:04.633Z,1.8
2016-12-31T10:52:10.657Z,1.8
2016-12-31T10:53:16.678Z,1.8
2016-12-31T10:54:22.699Z,1.9
2016-12-31T10:55:28.723Z,2
2016-12-31T10:56:34.745Z,2
2016-12-31T10:57:40.763Z,2
2016-12-31T10:58:46.786Z,2
2016-12-31T10:59:52.809Z,2.1
2016-12-31T11:00:58.840Z,2.3
2016-12-31T11:02:04.863Z,2.3
2016-12-31T11:03:10.884Z,2.2
2016-12-31T11:04:16.911Z,2.3
2016-12-31T11:05:22.939Z,2.2
2016-12-31T11:06:28.954Z,2
2016-12-31T11:07:34.969Z,1.8
2016-12-31T11:08:40.994Z,1.8
2016-12-31T11:09:47.025Z,1.8
2016-12-31T11:10:53.049Z,1.7
2016-12-31T11:11:59.064Z,1.8
2016-12-31T11:13:05.094Z,1.8
2016-12-31T11:14:11.121Z,1.9
2016-12-31T11:15:17.129Z,1.9
2016-12-31T11:16:23.150Z,1.8
2016-12-31T11:17:29.176Z,1.9
2016-12-31T11:18:35.191Z,1.9
2016-12-31T11:19:41.206Z,2
2016-12-31T11:20:47.231Z,2.1
2016-12-31T11:21:53.255Z,2.1
2016-12-31T11:22:59.275Z,2.2
2016-12-31T11:24:05.294Z,2.2
2016-12-31T11:25:11.321Z,2
2016-12-31T11:26:17.341Z,1.9
2016-12-31T11:27:23.366Z,2
2016-12-31T11:28:29.389Z,2
2016-12-31T11:29:35.420Z,1.9
2016-12-31T11:30:41.429Z,2
2016-12-31T11:31:47.450Z,1.9
2016-12-31T11:32:53.479Z,2
2016-12-31T11:33:59.493Z,2
2016-12-31T11:35:05.503Z,1.9
2016-12-31T11:36:11.527Z,2
2016-12-31T11:37:17.551Z,2.1
2016-12-31T11:38:23.576Z,2.1
2016-12-31T11:39:29.590Z,2
2016-12-31T11:40:35.619Z,2.1
2016-12-31T11:41:41.636Z,2.2
2016-12-31T11:42:47.656Z,2.3
2016-12-31T11:43:53.668Z,2.1
2016-12-31T11:44:59.690Z,2.2
2016-12-31T11:46:05.714Z,2.1
2016-12-31T11:47:11.733Z,2.1
2016-12-31T11:48:17.758Z,2.1
2016-12-31T11:49:23.778Z,2.2
2016-12-31T11:50:29.797Z,2.2
2016-12-31T11:51:35.821Z,2.3
2016-12-31T11:52:41.843Z,2.2
2016-12-31T11:53:47.861Z,2.2
2016-12-31T11:54:53.882Z,2.1
2016-12-31T11:55:59.902Z,2.2
2016-12-31T11:57:05.930Z,2.2
2016-12-31T11:58:11.951Z,2.1
2016-12-31T11:59:17.974Z,2.1
2016-12-31T12:00:23.987Z,2.1
2016-12-31T12:01:30.005Z,2.2
2016-12-31T12:02:36.029Z,2.2
2016-12-31T12:03:42.052Z,2.2
2016-12-31T12:04:48.067Z,2.2
2016-12-31T12:05:54.091Z,2.2
2016-12-31T12:07:00.115Z,2.2
2016-12-31T12:08:06.140Z,2.2
2016-12-31T12:09:12.154Z,2.2
2016-12-31T12:10:18.172Z,2.3
2016-12-31T12:11:24.195Z,2.3
2016-12-31T12:12:30.224Z,2.4
2016-12-31T12:13:36.244Z,2.4
2016-12-31T12:14:42.258Z,2.5
2016-12-31T12:15:48.276Z,2.5
2016-12-31T12:16:54.298Z,2.4
2016-12-31T12:18:00.316Z,2.4
2016-12-31T12:19:06.344Z,2.4
2016-12-31T12:20:12.367Z,2.4
2016-12-31T12:21:18.388Z,2.5
2016-12-31T12:22:24.412Z,2.5
2016-12-31T12:23:30.436Z,2.5
2016-12-31T12:24:36.459Z,2.4
2016-12-31T12:25:42.482Z,2.4
2016-12-31T12:26:48.504Z,2.7
2016-12-31T12:27:54.530Z,2.6
2016-12-31T12:29:00.542Z,2.6
2016-12-31T12:30:06.559Z,2.6
2016-12-31T12:31:12.576Z,2.6
2016-12-31T12:32:18.599Z,2.4
2016-12-31T12:33:24.625Z,2.4
2016-12-31T12:34:30.641Z,2.4
2016-12-31T12:35:36.658Z,2.3
2016-12-31T12:36:42.677Z,2.4
2016-12-31T12:37:48.699Z,2.4
2016-12-31T12:38:54.717Z,2.3
2016-12-31T12:40:00.737Z,2.4
2016-12-31T12:41:06.758Z,2.4
2016-12-31T12:42:12.780Z,2.6
2016-12-31T12:43:18.799Z,2.6
2016-12-31T12:44:24.819Z,2.6
2016-12-31T12:45:30.847Z,2.5
2016-12-31T12:46:36.879Z,2.5
2016-12-31T12:47:42.925Z,2.5
2016-12-31T12:48:48.945Z,2.5
2016-12-31T12:49:54.988Z,2.5
2016-12-31T12:51:01.021Z,2.7
2016-12-31T12:52:07.049Z,2.6
2016-12-31T12:53:13.075Z,2.8
2016-12-31T12:54:19.099Z,2.6
2016-12-31T12:55:25.110Z,2.5
2016-12-31T12:56:31.143Z,2.6
2016-12-31T12:57:37.166Z,2.6
2016-12-31T12:58:43.176Z,2.7
2016-12-31T12:59:49.196Z,2.9
2016-12-31T13:00:55.213Z,2.7
2016-12-31T13:02:01.242Z,2.7
2016-12-31T13:03:07.253Z,2.5
2016-12-31T13:04:13.279Z,2.5
2016-12-31T13:05:19.309Z,2.4
2016-12-31T13:06:25.336Z,2.5
2016-12-31T13:07:31.349Z,2.5
2016-12-31T13:08:37.370Z,2.5
2016-12-31T13:09:43.387Z,2.5
2016-12-31T13:10:49.411Z,2.5
2016-12-31T13:11:55.430Z,2.5
2016-12-31T13:13:01.454Z,2.5
2016-12-31T13:14:07.480Z,2.6
2016-12-31T13:15:13.490Z,2.5
2016-12-31T13:16:19.520Z,2.5
2016-12-31T13:17:25.546Z,2.6
2016-12-31T13:18:31.587Z,2.6
2016-12-31T13:19:37.622Z,2.6
2016-12-31T13:20:43.643Z,2.6
2016-12-31T13:21:49.677Z,2.5
2016-12-31T13:22:55.693Z,2.6
2016-12-31T13:24:01.725Z,2.7
2016-12-31T13:25:07.764Z,2.7
2016-12-31T13:26:13.790Z,2.5
2016-12-31T13:27:19.815Z,2.6
2016-12-31T13:28:25.823Z,2.6
2016-12-31T13:29:31.841Z,2.6
2016-12-31T13:30:37.862Z,2.7
2016-12-31T13:31:43.881Z,2.7
2016-12-31T13:32:49.911Z,2.5
2016-12-31T13:33:55.929Z,2.5
2016-12-31T13:35:01.951Z,2.4
2016-12-31T13:36:07.976Z,2.5
2016-12-31T13:37:13.999Z,2.6
2016-12-31T13:38:20.026Z,2.7
2016-12-31T13:39:26.038Z,2.8
2016-12-31T13:40:32.065Z,2.8
2016-12-31T13:41:38.082Z,2.7
2016-12-31T13:42:44.104Z,2.7
2016-12-31T13:43:50.127Z,2.8
2016-12-31T13:44:56.146Z,2.6
2016-12-31T13:46:02.163Z,2.6
2016-12-31T13:47:08.178Z,2.7
2016-12-31T13:48:14.200Z,2.7
2016-12-31T13:49:20.219Z,2.6
2016-12-31T13:50:26.245Z,2.6
2016-12-31T13:51:32.267Z,2.6
2016-12-31T13:52:38.294Z,2.6
2016-12-31T13:53:44.303Z,2.7
2016-12-31T13:54:50.320Z,2.7
2016-12-31T13:55:56.347Z,2.8
2016-12-31T13:57:02.369Z,2.9
2016-12-31T13:58:08.392Z,2.8
2016-12-31T13:59:14.409Z,2.8
2016-12-31T14:00:20.428Z,2.7
2016-12-31T14:01:26.447Z,2.8
2016-12-31T14:02:32.463Z,2.8
2016-12-31T14:03:38.490Z,2.9
2016-12-31T14:04:44.510Z,2.9
2016-12-31T14:05:50.530Z,2.9
2016-12-31T14:06:56.545Z,2.8
2016-12-31T14:08:02.572Z,2.8
2016-12-31T14:09:08.595Z,2.8
2016-12-31T14:10:14.621Z,2.8
2016-12-31T14:11:20.633Z,2.8
2016-12-31T14:12:26.690Z,2.8
2016-12-31T14:13:32.679Z,2.8
2016-12-31T14:14:38.689Z,2.8
2016-12-31T14:15:44.708Z,2.9
2016-12-31T14:16:50.730Z,2.9
2016-12-31T14:17:56.758Z,3
2016-12-31T14:19:02.777Z,2.9
2016-12-31T14:20:08.803Z,2.9
2016-12-31T14:21:14.823Z,2.9
2016-12-31T14:22:20.842Z,2.9
2016-12-31T14:23:26.862Z,2.9
2016-12-31T14:24:32.890Z,2.9
2016-12-31T14:25:38.913Z,2.9
2016-12-31T14:26:44.934Z,2.9
2016-12-31T14:27:50.951Z,2.9
2016-12-31T14:28:56.980Z,3
2016-12-31T14:30:03.002Z,3.1
2016-12-31T14:31:09.015Z,3.1
2016-12-31T14:32:15.036Z,3.1
2016-12-31T14:33:21.060Z,3.1
2016-12-31T14:34:27.088Z,3.1
2016-12-31T14:35:33.102Z,3.2
2016-12-31T14:36:39.123Z,3.2
2016-12-31T14:37:45.149Z,3.1
2016-12-31T14:38:51.168Z,3.1
2016-12-31T14:39:57.180Z,3
2016-12-31T14:41:03.200Z,2.9
2016-12-31T14:42:09.249Z,3
2016-12-31T14:43:15.240Z,3
2016-12-31T14:44:21.267Z,3
2016-12-31T14:45:27.286Z,3
2016-12-31T14:46:33.310Z,3
2016-12-31T14:47:39.321Z,3.1
2016-12-31T14:48:45.352Z,3
2016-12-31T14:49:51.376Z,3
2016-12-31T14:50:57.393Z,3.1
2016-12-31T14:52:03.413Z,3.1
2016-12-31T14:53:09.430Z,3.2
2016-12-31T14:54:15.454Z,3.3
2016-12-31T14:55:21.474Z,3.4
2016-12-31T14:56:27.486Z,3.4
2016-12-31T14:57:33.509Z,3.4
2016-12-31T14:58:39.530Z,3.2
2016-12-31T14:59:45.555Z,3.2
2016-12-31T15:00:51.570Z,3.2
2016-12-31T15:01:57.595Z,3.2
2016-12-31T15:03:03.617Z,3.2
2016-12-31T15:04:09.641Z,3.1
2016-12-31T15:05:15.661Z,3.1
2016-12-31T15:06:21.680Z,3.1
2016-12-31T15:07:27.698Z,3.1
2016-12-31T15:08:33.716Z,3.1
2016-12-31T15:09:39.739Z,3
2016-12-31T15:10:45.763Z,3.1
2016-12-31T15:11:51.782Z,3.1
2016-12-31T15:12:57.808Z,3.1